Time;durP1;ratioP1;P1;durP2;ratioP2;P2;SDS_P1;SDS_P2;PMS_P1;PMS_P2;Temp;Humidity;BMP_temperature;BMP_pressure;BME280_temperature;BME280_humidity;BME280_pressure;Samples;Min_cycle;Max_cycle;Signal;HPM_P1;HPM_P2
2023/03/14 00:01:39;;;;;;;3.83;1.33;;;13.00;99.90;;;;;;4974881;28;20660;-85
2023/03/14 00:04:05;;;;;;;5.80;1.70;;;13.00;99.90;;;;;;5002825;28;20099;-85
2023/03/14 00:06:31;;;;;;;9.07;1.55;;;12.80;99.90;;;;;;5003337;28;20025;-83
2023/03/14 00:08:56;;;;;;;6.07;1.25;;;12.90;99.90;;;;;;4995194;28;20032;-84
2023/03/14 00:11:22;;;;;;;5.90;1.80;;;12.90;99.90;;;;;;4992417;28;20278;-85
2023/03/14 00:13:49;;;;;;;6.95;1.65;;;12.90;99.90;;;;;;4992915;28;20045;-86
2023/03/14 00:16:15;;;;;;;9.60;1.70;;;12.90;99.90;;;;;;4981442;28;20030;-81
2023/03/14 00:18:43;;;;;;;10.85;1.40;;;12.80;99.90;;;;;;4992962;28;20721;-81
2023/03/14 00:21:10;;;;;;;7.65;1.27;;;12.80;99.90;;;;;;4990781;28;20552;-81
2023/03/14 00:23:38;;;;;;;3.45;1.17;;;12.80;99.90;;;;;;4974345;28;20145;-81
2023/03/14 00:26:09;;;;;;;8.68;1.50;;;12.80;99.90;;;;;;4974520;28;20046;-81
2023/03/14 00:28:36;;;;;;;5.50;1.75;;;12.90;99.90;;;;;;4991279;28;20109;-82
2023/03/14 00:31:07;;;;;;;4.07;1.17;;;12.90;99.90;;;;;;4971737;28;20643;-82
2023/03/14 00:33:33;;;;;;;4.93;2.30;;;12.80;99.90;;;;;;4995513;28;20029;-81
2023/03/14 00:36:04;;;;;;;6.45;1.23;;;12.80;99.90;;;;;;4989855;28;20058;-80
2023/03/14 00:38:32;;;;;;;2.20;1.42;;;12.80;99.90;;;;;;4979109;28;20026;-82
2023/03/14 00:40:58;;;;;;;4.43;1.13;;;12.80;99.90;;;;;;4990864;28;20050;-81
2023/03/14 00:43:24;;;;;;;5.07;1.50;;;12.80;99.90;;;;;;4989636;28;20106;-82
2023/03/14 00:45:52;;;;;;;7.15;1.70;;;12.70;99.90;;;;;;5002612;28;20045;-82
2023/03/14 00:48:19;;;;;;;9.95;1.80;;;12.60;99.90;;;;;;4999406;28;20026;-82
2023/03/14 00:50:45;;;;;;;6.70;1.23;;;12.60;99.90;;;;;;4983954;28;20017;-82
2023/03/14 00:53:11;;;;;;;7.63;1.60;;;12.60;99.90;;;;;;4975508;28;20018;-82
2023/03/14 00:55:42;;;;;;;8.38;1.58;;;12.50;99.90;;;;;;4975032;28;20080;-82
2023/03/14 00:58:08;;;;;;;12.40;2.10;;;12.50;99.90;;;;;;4994688;28;20057;-84
2023/03/14 01:00:34;;;;;;;4.22;1.33;;;12.50;99.90;;;;;;4984376;28;20025;-81
2023/03/14 01:03:00;;;;;;;4.45;1.40;;;12.50;99.90;;;;;;4993302;28;20517;-80
2023/03/14 01:05:26;;;;;;;2.83;1.17;;;12.50;99.90;;;;;;4991191;28;20026;-81
2023/03/14 01:07:51;;;;;;;3.83;1.50;;;12.50;99.90;;;;;;4991769;28;20422;-80
2023/03/14 01:10:17;;;;;;;5.97;1.75;;;12.50;99.90;;;;;;4994508;28;20065;-81
2023/03/14 01:12:43;;;;;;;6.90;1.70;;;12.50;99.90;;;;;;4995890;28;20561;-77
2023/03/14 01:15:09;;;;;;;9.02;1.88;;;12.60;99.90;;;;;;4997140;28;20061;-81
2023/03/14 01:17:35;;;;;;;5.70;1.40;;;12.60;99.90;;;;;;4984560;28;20486;-81
2023/03/14 01:20:01;;;;;;;8.23;1.65;;;12.60;99.90;;;;;;4995952;28;20022;-82
2023/03/14 01:22:27;;;;;;;10.68;1.63;;;12.60;99.90;;;;;;4995623;28;20133;-81
2023/03/14 01:24:52;;;;;;;7.15;1.85;;;12.60;99.90;;;;;;4977059;28;20557;-82
2023/03/14 01:27:18;;;;;;;6.72;2.08;;;12.60;99.90;;;;;;4993122;28;20034;-82
2023/03/14 01:29:43;;;;;;;3.10;1.15;;;12.70;99.90;;;;;;4996714;28;20018;-80
2023/03/14 01:32:12;;;;;;;7.85;1.52;;;12.80;99.90;;;;;;4995936;28;20060;-81
2023/03/14 01:34:37;;;;;;;10.10;2.33;;;12.80;99.90;;;;;;4996966;28;20022;-79
2023/03/14 01:37:03;;;;;;;6.30;1.45;;;12.80;99.90;;;;;;4995639;28;20045;-79
2023/03/14 01:39:29;;;;;;;8.77;1.52;;;12.70;99.90;;;;;;4976811;28;20429;-79
2023/03/14 01:41:54;;;;;;;8.70;1.25;;;12.60;99.90;;;;;;4995267;28;20021;-81
2023/03/14 01:44:20;;;;;;;10.10;1.52;;;12.60;99.90;;;;;;4993391;28;20027;-80
2023/03/14 01:46:46;;;;;;;7.15;1.77;;;12.60;99.90;;;;;;4993048;28;20084;-81
2023/03/14 01:49:12;;;;;;;3.40;1.20;;;12.60;99.90;;;;;;4994585;28;20559;-82
2023/03/14 01:51:46;;;;;;;6.32;1.48;;;12.60;99.90;;;;;;4978553;28;20019;-80
2023/03/14 01:54:15;;;;;;;7.68;1.20;;;12.60;99.90;;;;;;4982696;28;20478;-80
2023/03/14 01:56:44;;;;;;;7.93;1.17;;;12.60;99.90;;;;;;4991964;28;20053;-81
2023/03/14 01:59:10;;;;;;;3.92;1.15;;;12.50;99.90;;;;;;4993065;28;20030;-82
2023/03/14 02:01:38;;;;;;;9.57;1.85;;;12.50;99.90;;;;;;4983227;28;20300;-82
2023/03/14 02:04:09;;;;;;;5.57;1.33;;;12.50;99.90;;;;;;4993822;28;20545;-76
2023/03/14 02:06:52;;;;;;;3.25;0.77;;;12.50;99.90;;;;;;4978479;28;20038;-82
2023/03/14 02:09:18;;;;;;;9.52;1.08;;;12.50;99.90;;;;;;4997861;28;20034;-80
2023/03/14 02:11:45;;;;;;;5.85;1.30;;;12.40;99.90;;;;;;4991897;28;20131;-76
2023/03/14 02:14:29;;;;;;;2.90;0.75;;;12.40;99.90;;;;;;4990925;28;20022;-82
2023/03/14 02:16:55;;;;;;;9.35;1.52;;;12.30;99.90;;;;;;4983447;28;20037;-83
2023/03/14 02:19:43;;;;;;;4.25;1.05;;;12.30;99.90;;;;;;4974023;28;20432;-81
2023/03/14 02:22:12;;;;;;;6.80;1.40;;;12.30;99.90;;;;;;4976452;28;20030;-82
2023/03/14 02:25:02;;;;;;;7.82;1.40;;;12.20;99.90;;;;;;4983709;28;20018;-82
2023/03/14 02:27:28;;;;;;;4.95;0.90;;;12.10;99.90;;;;;;4976649;28;20065;-79
2023/03/14 02:30:04;;;;;;;6.88;1.58;;;12.10;99.90;;;;;;4993809;28;20474;-83
2023/03/14 02:32:32;;;;;;;4.68;0.90;;;12.00;99.90;;;;;;4989724;28;20033;-83
2023/03/14 02:35:01;;;;;;;2.97;0.90;;;11.90;99.90;;;;;;4986189;28;20022;-83
2023/03/14 02:37:34;;;;;;;3.80;0.80;;;11.80;99.90;;;;;;5001584;28;20108;-81
2023/03/14 02:40:00;;;;;;;3.97;1.02;;;11.80;99.90;;;;;;5000307;28;20053;-83
2023/03/14 02:42:25;;;;;;;4.18;1.40;;;11.70;99.90;;;;;;4996601;28;20033;-82
2023/03/14 02:45:19;;;;;;;5.60;1.13;;;11.70;99.90;;;;;;4989438;28;20499;-83
2023/03/14 02:48:07;;;;;;;3.35;1.10;;;11.60;99.90;;;;;;4971890;28;20390;-84
2023/03/14 02:50:34;;;;;;;4.72;0.95;;;11.60;99.90;;;;;;4981367;28;20570;-83
2023/03/14 02:52:59;;;;;;;2.80;0.80;;;11.60;99.90;;;;;;4982318;28;20026;-83
2023/03/14 02:55:26;;;;;;;5.10;1.25;;;11.70;99.90;;;;;;4995702;28;20026;-83
2023/03/14 02:57:52;;;;;;;3.75;0.93;;;11.70;99.90;;;;;;4980027;28;20057;-82
2023/03/14 03:00:19;;;;;;;5.82;0.98;;;11.60;99.90;;;;;;4995043;28;20075;-81
2023/03/14 03:02:45;;;;;;;7.90;1.10;;;11.60;99.90;;;;;;4990418;28;20029;-81
2023/03/14 03:05:10;;;;;;;6.38;1.45;;;11.60;99.90;;;;;;4976826;28;20087;-83
2023/03/14 03:07:36;;;;;;;4.43;0.88;;;11.60;99.90;;;;;;4996017;28;20549;-82
2023/03/14 03:10:02;;;;;;;4.55;0.80;;;11.60;99.90;;;;;;4979937;28;20470;-83
2023/03/14 03:12:28;;;;;;;7.13;1.15;;;11.60;99.90;;;;;;4985199;28;20022;-80
2023/03/14 03:14:54;;;;;;;3.75;1.13;;;11.60;99.90;;;;;;4975496;28;20123;-83
2023/03/14 03:17:19;;;;;;;5.70;1.52;;;11.40;99.90;;;;;;4981857;28;20026;-82
2023/03/14 03:19:45;;;;;;;5.13;1.00;;;11.50;99.90;;;;;;4977910;28;20033;-86
2023/03/14 03:22:10;;;;;;;7.28;0.98;;;11.50;99.90;;;;;;4993956;28;20541;-85
2023/03/14 03:24:36;;;;;;;3.83;1.00;;;11.40;99.90;;;;;;4977282;28;20161;-79
2023/03/14 03:27:04;;;;;;;7.35;1.10;;;11.50;99.90;;;;;;4973066;28;20388;-82
2023/03/14 03:29:30;;;;;;;3.45;0.95;;;11.40;99.90;;;;;;4980575;28;20030;-85
2023/03/14 03:31:55;;;;;;;5.78;1.23;;;11.40;99.90;;;;;;4969710;28;20038;-83
2023/03/14 03:34:21;;;;;;;6.57;1.60;;;11.50;99.90;;;;;;4975656;28;20113;-86
2023/03/14 03:36:47;;;;;;;2.75;0.90;;;11.40;99.90;;;;;;4995464;28;20113;-80
2023/03/14 03:39:12;;;;;;;5.63;1.10;;;11.40;99.90;;;;;;4990016;28;20022;-83
2023/03/14 03:41:38;;;;;;;6.50;1.20;;;11.50;99.90;;;;;;4993286;28;20026;-84
2023/03/14 03:44:05;;;;;;;9.00;0.85;;;11.50;99.90;;;;;;4976549;28;20038;-89
2023/03/14 03:46:34;;;;;;;3.72;0.90;;;11.40;99.90;;;;;;4975087;28;20064;-90
2023/03/14 03:49:00;;;;;;;7.70;1.10;;;11.50;99.90;;;;;;4994361;28;20048;-83
2023/03/14 03:51:28;;;;;;;3.50;1.10;;;11.60;99.90;;;;;;4992616;28;20483;-82
2023/03/14 03:53:56;;;;;;;11.75;1.65;;;11.60;99.90;;;;;;4977529;28;20033;-83
2023/03/14 03:56:22;;;;;;;10.63;1.90;;;11.60;99.90;;;;;;4993499;28;20068;-83
2023/03/14 03:58:47;;;;;;;6.65;1.80;;;11.60;99.90;;;;;;4972403;28;20022;-82
2023/03/14 04:01:13;;;;;;;8.95;1.40;;;11.70;99.90;;;;;;4992551;28;20020;-84
2023/03/14 04:03:39;;;;;;;7.22;1.10;;;11.70;99.90;;;;;;4974725;28;20645;-82
2023/03/14 04:06:10;;;;;;;9.70;1.48;;;11.70;99.90;;;;;;4991278;28;20121;-83
2023/03/14 04:08:36;;;;;;;12.55;1.65;;;11.70;99.90;;;;;;4988873;28;20010;-83
2023/03/14 04:11:03;;;;;;;5.50;1.10;;;11.70;99.90;;;;;;4992809;28;20540;-82
2023/03/14 04:13:29;;;;;;;14.05;1.42;;;11.60;99.90;;;;;;4976674;28;20032;-83
2023/03/14 04:15:55;;;;;;;12.43;2.15;;;11.70;99.90;;;;;;4979281;28;20018;-83
2023/03/14 04:18:24;;;;;;;4.60;1.30;;;11.70;99.90;;;;;;4977339;28;20026;-83
2023/03/14 04:20:54;;;;;;;3.42;1.30;;;11.80;99.90;;;;;;4992080;28;20138;-82
2023/03/14 04:23:20;;;;;;;15.30;1.55;;;11.70;99.90;;;;;;4977240;28;20390;-84
2023/03/14 04:25:45;;;;;;;8.52;1.45;;;11.70;99.90;;;;;;4975910;28;20025;-85
2023/03/14 04:28:11;;;;;;;7.70;1.80;;;11.70;99.90;;;;;;4995374;28;20689;-88
2023/03/14 04:30:37;;;;;;;10.38;1.70;;;11.70;99.90;;;;;;4992797;28;20037;-83
2023/03/14 04:33:02;;;;;;;6.65;1.15;;;11.70;99.90;;;;;;4981635;28;20470;-80
2023/03/14 04:35:30;;;;;;;9.30;1.70;;;11.70;99.90;;;;;;4999253;28;20021;-82
2023/03/14 04:37:59;;;;;;;9.50;1.35;;;11.80;99.90;;;;;;4994233;28;20117;-82
2023/03/14 04:40:26;;;;;;;11.88;1.52;;;11.70;99.90;;;;;;4974356;28;20053;-82
2023/03/14 04:42:52;;;;;;;10.63;1.25;;;11.70;99.90;;;;;;4980247;28;20475;-83
2023/03/14 04:45:20;;;;;;;8.10;1.48;;;11.60;99.90;;;;;;4990160;28;20037;-82
2023/03/14 04:47:46;;;;;;;6.00;1.40;;;11.60;99.90;;;;;;4989614;28;20076;-82
2023/03/14 04:50:12;;;;;;;7.15;1.05;;;11.60;99.90;;;;;;4986876;28;20027;-82
2023/03/14 04:52:37;;;;;;;11.68;1.65;;;11.40;99.90;;;;;;4995771;28;20492;-83
2023/03/14 04:55:03;;;;;;;7.72;1.40;;;11.50;99.90;;;;;;4994097;28;20153;-83
2023/03/14 04:57:31;;;;;;;7.43;1.30;;;11.50;99.90;;;;;;4979762;28;20025;-82
2023/03/14 04:59:57;;;;;;;7.13;1.30;;;11.50;99.90;;;;;;4993323;28;20084;-83
2023/03/14 05:02:22;;;;;;;3.53;0.82;;;11.50;99.90;;;;;;4992473;28;20494;-85
2023/03/14 05:04:48;;;;;;;7.22;1.15;;;11.50;99.90;;;;;;4975358;28;20018;-82
2023/03/14 05:07:13;;;;;;;10.65;1.63;;;11.50;99.90;;;;;;4993722;28;20058;-80
2023/03/14 05:09:39;;;;;;;7.38;1.17;;;11.40;99.90;;;;;;4981420;28;20482;-82
2023/03/14 05:12:05;;;;;;;9.95;0.88;;;11.30;99.90;;;;;;4993273;28;20025;-83
2023/03/14 05:14:31;;;;;;;10.07;1.30;;;11.30;99.90;;;;;;4974291;28;20045;-82
2023/03/14 05:16:59;;;;;;;11.32;0.95;;;11.30;99.90;;;;;;4978555;28;20030;-86
2023/03/14 05:19:25;;;;;;;6.65;1.08;;;11.20;99.90;;;;;;4990068;28;20034;-82
2023/03/14 05:21:50;;;;;;;5.65;0.95;;;11.40;99.90;;;;;;4984773;28;20022;-83
2023/03/14 05:24:16;;;;;;;1.30;0.70;;;11.40;99.90;;;;;;4994006;28;20500;-79
2023/03/14 05:26:41;;;;;;;5.28;0.85;;;11.40;99.90;;;;;;4993895;28;20085;-83
2023/03/14 05:29:07;;;;;;;4.93;0.77;;;11.40;99.90;;;;;;4987337;28;20018;-82
2023/03/14 05:31:32;;;;;;;1.88;0.50;;;11.50;99.90;;;;;;4984516;28;20385;-82
2023/03/14 05:33:58;;;;;;;5.00;0.82;;;11.40;99.90;;;;;;4994216;28;20077;-81
2023/03/14 05:36:24;;;;;;;3.42;0.70;;;11.40;99.90;;;;;;4980599;28;20125;-80
2023/03/14 05:38:49;;;;;;;2.90;0.50;;;11.30;99.90;;;;;;4995714;28;20034;-82
2023/03/14 05:41:15;;;;;;;2.33;0.70;;;11.20;99.90;;;;;;4995497;28;20556;-82
2023/03/14 05:43:40;;;;;;;1.55;0.45;;;11.20;99.90;;;;;;4985384;28;20029;-86
2023/03/14 05:46:06;;;;;;;0.90;0.50;;;11.20;99.90;;;;;;4978625;28;20413;-84
2023/03/14 05:48:34;;;;;;;2.70;0.50;;;11.20;99.90;;;;;;4994383;28;20018;-83
2023/03/14 05:50:59;;;;;;;3.67;0.50;;;11.10;99.90;;;;;;4985684;28;20556;-87
2023/03/14 05:53:25;;;;;;;1.27;0.38;;;11.00;99.90;;;;;;4979357;28;20411;-82
2023/03/14 05:55:53;;;;;;;3.42;0.70;;;11.10;99.90;;;;;;4998648;28;20018;-82
2023/03/14 05:58:20;;;;;;;4.22;1.05;;;11.10;99.90;;;;;;4984139;28;20015;-83
2023/03/14 06:00:49;;;;;;;0.70;0.70;;;11.00;99.90;;;;;;4977263;28;20022;-83
2023/03/14 06:03:15;;;;;;;0.95;0.73;;;10.90;99.90;;;;;;4996247;28;20045;-81
2023/03/14 06:05:41;;;;;;;4.72;0.80;;;10.90;99.90;;;;;;4993217;28;20080;-81
2023/03/14 06:08:06;;;;;;;4.15;0.80;;;11.00;99.90;;;;;;5000132;28;20085;-81
2023/03/14 06:10:32;;;;;;;3.58;1.08;;;10.90;99.90;;;;;;4995300;28;20373;-83
2023/03/14 06:12:58;;;;;;;1.73;0.88;;;10.90;99.90;;;;;;4991799;28;20245;-84
2023/03/14 06:15:24;;;;;;;4.32;1.10;;;10.60;99.90;;;;;;4983696;28;20383;-83
2023/03/14 06:17:51;;;;;;;3.63;0.90;;;10.80;99.90;;;;;;4976799;28;20194;-83
2023/03/14 06:20:17;;;;;;;2.22;1.00;;;10.80;99.90;;;;;;4982626;28;20026;-83
2023/03/14 06:22:43;;;;;;;1.85;0.88;;;10.70;99.90;;;;;;4984225;28;20073;-83
2023/03/14 06:25:09;;;;;;;5.30;1.00;;;10.80;99.90;;;;;;5128964;22;20521;-83
2023/03/14 06:27:34;;;;;;;1.90;0.80;;;10.70;99.90;;;;;;5000024;28;20402;-83
2023/03/14 06:30:00;;;;;;;2.97;1.08;;;10.70;99.90;;;;;;5005550;28;20021;-83
2023/03/14 06:32:28;;;;;;;0.88;0.88;;;10.70;99.90;;;;;;5002912;28;20025;-82
2023/03/14 06:34:54;;;;;;;3.08;1.40;;;10.70;99.90;;;;;;5017804;28;20041;-82
2023/03/14 06:37:19;;;;;;;2.28;1.10;;;10.70;99.90;;;;;;5002153;28;20030;-82
2023/03/14 06:39:45;;;;;;;2.92;1.55;;;10.90;99.90;;;;;;5002381;28;20030;-84
2023/03/14 06:42:11;;;;;;;1.60;1.15;;;10.80;99.90;;;;;;5002541;28;20022;-82
2023/03/14 06:44:36;;;;;;;2.30;1.13;;;10.90;99.90;;;;;;5003577;28;20021;-83
2023/03/14 06:47:02;;;;;;;2.95;1.50;;;10.90;99.90;;;;;;5003758;28;20124;-83
2023/03/14 06:49:28;;;;;;;3.20;1.40;;;10.90;99.90;;;;;;5017877;28;20029;-82
2023/03/14 06:51:53;;;;;;;4.45;1.75;;;11.00;99.90;;;;;;5003472;28;20214;-82
2023/03/14 06:54:19;;;;;;;4.15;1.33;;;11.10;99.90;;;;;;5003121;28;20505;-82
2023/03/14 06:56:45;;;;;;;1.75;1.25;;;11.10;99.90;;;;;;5003157;28;20022;-82
2023/03/14 06:59:10;;;;;;;2.40;1.30;;;11.20;99.90;;;;;;4998704;28;20053;-83
2023/03/14 07:01:36;;;;;;;3.30;1.77;;;11.20;99.90;;;;;;5001758;28;20026;-78
2023/03/14 07:04:04;;;;;;;3.47;1.30;;;11.20;99.90;;;;;;5003608;28;20032;-82
2023/03/14 07:06:30;;;;;;;3.85;1.70;;;11.20;99.90;;;;;;5005604;28;20072;-82
2023/03/14 07:08:56;;;;;;;3.65;1.70;;;11.20;99.90;;;;;;5000378;28;20119;-82
2023/03/14 07:11:22;;;;;;;2.38;1.70;;;11.20;99.90;;;;;;5019076;28;20088;-83
2023/03/14 07:13:48;;;;;;;3.08;1.38;;;11.20;99.90;;;;;;5019541;28;20017;-83
2023/03/14 07:16:14;;;;;;;2.33;1.65;;;11.30;99.90;;;;;;4995422;28;20031;-83
2023/03/14 07:18:39;;;;;;;2.97;1.70;;;11.30;99.90;;;;;;5016368;28;20021;-83
2023/03/14 07:21:07;;;;;;;1.55;1.42;;;11.30;99.90;;;;;;5019283;28;20123;-83
2023/03/14 07:23:33;;;;;;;2.15;1.73;;;11.40;99.90;;;;;;5001241;28;20163;-83
2023/03/14 07:25:59;;;;;;;2.78;1.63;;;11.40;99.90;;;;;;5016758;28;20030;-84
2023/03/14 07:28:24;;;;;;;1.85;1.35;;;11.20;99.90;;;;;;5000513;28;20029;-82
2023/03/14 07:30:50;;;;;;;1.50;1.40;;;11.30;99.90;;;;;;5001135;28;20533;-83
2023/03/14 07:33:15;;;;;;;2.42;1.63;;;11.40;99.90;;;;;;4997781;28;20113;-82
2023/03/14 07:35:41;;;;;;;2.83;2.47;;;11.40;99.90;;;;;;5020413;28;20025;-84
2023/03/14 07:38:09;;;;;;;2.28;1.92;;;11.30;99.90;;;;;;5027793;28;20017;-79
2023/03/14 07:40:35;;;;;;;5.18;1.40;;;11.50;99.90;;;;;;5020415;28;20032;-84
2023/03/14 07:43:00;;;;;;;3.05;1.45;;;11.60;99.90;;;;;;5006159;28;20014;-80
2023/03/14 07:45:26;;;;;;;1.80;1.30;;;11.70;99.90;;;;;;5026653;28;20029;-84
2023/03/14 07:47:52;;;;;;;2.72;1.38;;;11.70;99.90;;;;;;5007446;28;20053;-82
2023/03/14 07:50:19;;;;;;;5.05;1.40;;;11.80;99.90;;;;;;5001650;28;20030;-84
2023/03/14 07:52:44;;;;;;;1.52;1.42;;;11.90;99.90;;;;;;5012900;28;20055;-82
2023/03/14 07:55:10;;;;;;;1.67;1.58;;;11.80;99.90;;;;;;5002845;28;20453;-78
2023/03/14 07:57:35;;;;;;;2.15;1.13;;;11.90;99.90;;;;;;5001393;28;20052;-81
2023/03/14 08:00:01;;;;;;;2.78;1.45;;;11.80;99.90;;;;;;5015560;28;20014;-80
2023/03/14 08:02:27;;;;;;;1.40;1.30;;;12.00;99.90;;;;;;4998069;28;20029;-80
2023/03/14 08:04:52;;;;;;;4.68;1.60;;;12.00;99.90;;;;;;5017278;28;20459;-83
2023/03/14 08:07:18;;;;;;;1.77;1.30;;;12.00;99.90;;;;;;5011761;28;20040;-81
2023/03/14 08:09:43;;;;;;;4.07;1.65;;;12.00;99.90;;;;;;5013793;28;20477;-80
2023/03/14 08:12:09;;;;;;;3.05;1.50;;;12.00;99.90;;;;;;4999674;28;20525;-81
2023/03/14 08:14:35;;;;;;;3.55;1.10;;;12.10;99.90;;;;;;5012162;28;20072;-79
2023/03/14 08:17:03;;;;;;;3.05;1.42;;;12.00;99.90;;;;;;4999871;28;20639;-82
2023/03/14 08:19:29;;;;;;;2.47;1.65;;;12.10;99.90;;;;;;4997644;28;20486;-81
2023/03/14 08:21:57;;;;;;;1.55;1.45;;;12.10;99.90;;;;;;5002373;28;20068;-80
2023/03/14 08:24:24;;;;;;;2.80;1.30;;;12.20;99.90;;;;;;5018383;28;20026;-81
2023/03/14 08:26:50;;;;;;;2.90;1.50;;;12.20;99.90;;;;;;4997677;28;20059;-80
2023/03/14 08:29:16;;;;;;;2.10;1.65;;;12.30;99.90;;;;;;5002905;28;20037;-81
2023/03/14 08:31:41;;;;;;;3.45;1.60;;;12.20;99.90;;;;;;5013465;28;20026;-82
2023/03/14 08:34:07;;;;;;;3.15;1.65;;;12.20;99.90;;;;;;4999263;28;20041;-86
2023/03/14 08:36:33;;;;;;;2.70;1.63;;;12.00;99.90;;;;;;5000320;28;20029;-83
2023/03/14 08:38:59;;;;;;;4.13;2.03;;;12.00;99.90;;;;;;4996591;28;20336;-83
2023/03/14 08:41:24;;;;;;;2.03;0.90;;;11.90;99.90;;;;;;5020045;28;20469;-85
2023/03/14 08:43:50;;;;;;;1.52;0.63;;;11.70;99.90;;;;;;5019180;28;20013;-88
2023/03/14 08:46:16;;;;;;;1.77;0.60;;;11.30;99.90;;;;;;5023785;28;20049;-78
2023/03/14 08:48:43;;;;;;;1.42;0.65;;;11.10;99.90;;;;;;5150634;22;20063;-82
2023/03/14 08:51:15;;;;;;;1.95;0.93;;;10.90;99.90;;;;;;4991709;28;20022;-76
2023/03/14 08:53:41;;;;;;;1.13;0.63;;;10.70;99.90;;;;;;4995696;28;20113;-81
2023/03/14 08:56:09;;;;;;;0.60;0.60;;;10.60;99.90;;;;;;4968507;28;20101;-82
2023/03/14 08:58:37;;;;;;;1.00;0.60;;;10.40;99.90;;;;;;4991875;28;20018;-82
2023/03/14 09:01:09;;;;;;;1.55;0.60;;;10.30;99.90;;;;;;4995487;28;20045;-82
2023/03/14 09:03:35;;;;;;;1.95;0.77;;;10.20;99.90;;;;;;4993614;28;20076;-79
2023/03/14 09:06:06;;;;;;;2.88;0.50;;;10.10;99.90;;;;;;4986839;28;20064;-81
2023/03/14 09:08:31;;;;;;;2.20;0.82;;;10.00;99.90;;;;;;4995241;28;20022;-79
2023/03/14 09:10:57;;;;;;;1.10;0.80;;;10.00;99.90;;;;;;4992553;28;20076;-77
2023/03/14 09:13:23;;;;;;;1.42;0.60;;;9.90;99.90;;;;;;4992522;28;20046;-78
2023/03/14 09:15:53;;;;;;;0.70;0.70;;;9.90;99.90;;;;;;4997955;28;20112;-80
2023/03/14 09:18:18;;;;;;;1.58;0.70;;;9.90;99.90;;;;;;4995125;28;20026;-79
2023/03/14 09:20:44;;;;;;;0.60;0.60;;;10.00;99.90;;;;;;4996155;28;20673;-79
2023/03/14 09:23:15;;;;;;;1.13;0.60;;;10.00;99.90;;;;;;4993523;28;20026;-82
2023/03/14 09:25:40;;;;;;;1.90;0.60;;;10.10;99.90;;;;;;4982650;28;20700;-77
2023/03/14 09:28:08;;;;;;;4.22;0.73;;;10.20;99.90;;;;;;4984077;28;20037;-80
2023/03/14 09:30:34;;;;;;;0.40;0.40;;;10.20;99.90;;;;;;4992539;28;20052;-81
2023/03/14 09:32:59;;;;;;;0.75;0.45;;;10.30;99.90;;;;;;4984468;28;20018;-81
2023/03/14 09:35:28;;;;;;;0.60;0.43;;;10.30;99.90;;;;;;4980321;28;20300;-79
2023/03/14 09:37:53;;;;;;;0.55;0.52;;;10.30;99.90;;;;;;4992677;28;20022;-80
2023/03/14 09:40:22;;;;;;;0.82;0.63;;;10.20;99.90;;;;;;4985053;28;20033;-80
2023/03/14 09:42:54;;;;;;;0.40;0.40;;;10.00;99.90;;;;;;4992786;28;20266;-77
2023/03/14 09:45:38;;;;;;;0.90;0.40;;;9.90;99.90;;;;;;4976379;28;20023;-81
2023/03/14 09:48:05;;;;;;;0.50;0.50;;;9.90;99.90;;;;;;4993304;28;20041;-81
2023/03/14 09:50:41;;;;;;;4.43;0.70;;;9.70;99.90;;;;;;4993818;28;20060;-82
2023/03/14 09:53:12;;;;;;;2.50;0.75;;;9.50;99.90;;;;;;5003661;28;20022;-82
2023/03/14 09:55:38;;;;;;;1.75;0.70;;;9.40;99.90;;;;;;4981650;28;20179;-82
2023/03/14 09:58:11;;;;;;;6.68;0.90;;;9.20;99.90;;;;;;4990715;28;20116;-82
2023/03/14 10:00:37;;;;;;;3.97;0.98;;;9.20;99.90;;;;;;4983524;28;20383;-81
2023/03/14 10:03:11;;;;;;;1.45;0.55;;;9.20;99.90;;;;;;4997634;28;20049;-82
2023/03/14 10:05:37;;;;;;;2.22;0.60;;;9.10;99.90;;;;;;4976452;28;20382;-82
2023/03/14 10:08:02;;;;;;;5.32;0.65;;;9.00;99.90;;;;;;4977603;28;20045;-82
2023/03/14 10:10:28;;;;;;;1.35;0.57;;;9.10;99.90;;;;;;4984672;28;20014;-82
2023/03/14 10:12:58;;;;;;;3.30;1.10;;;9.30;99.90;;;;;;4984452;28;20080;-75
2023/03/14 10:15:35;;;;;;;4.07;0.98;;;9.50;99.90;;;;;;4991815;28;20076;-76
2023/03/14 10:18:02;;;;;;;2.10;0.50;;;9.50;99.90;;;;;;4991883;28;20026;-82
2023/03/14 10:20:41;;;;;;;0.45;0.43;;;9.60;99.90;;;;;;4977847;28;20057;-82
2023/03/14 10:23:13;;;;;;;0.80;0.60;;;9.70;99.90;;;;;;4969600;28;20037;-83
2023/03/14 10:25:41;;;;;;;2.95;0.70;;;9.60;99.90;;;;;;4975775;28;20033;-83
2023/03/14 10:28:30;;;;;;;1.90;0.52;;;9.60;99.90;;;;;;4977786;28;20497;-83
2023/03/14 10:30:59;;;;;;;2.67;0.60;;;9.80;99.90;;;;;;4980065;28;20034;-83
2023/03/14 10:33:28;;;;;;;9.20;0.95;;;9.90;99.90;;;;;;4981645;28;20030;-84
2023/03/14 10:35:57;;;;;;;2.22;0.85;;;9.80;99.90;;;;;;4980025;28;20400;-79
2023/03/14 10:38:35;;;;;;;2.47;0.75;;;9.80;99.90;;;;;;4982507;28;20436;-79
2023/03/14 10:41:01;;;;;;;0.65;0.50;;;10.10;99.90;;;;;;4989251;28;20085;-83
2023/03/14 10:43:35;;;;;;;1.13;0.50;;;10.30;99.90;;;;;;4993903;28;20029;-83
2023/03/14 10:46:17;;;;;;;3.53;1.00;;;10.30;99.90;;;;;;4978208;28;20022;-82
2023/03/14 10:48:42;;;;;;;4.45;0.73;;;10.30;99.90;;;;;;4993596;28;20563;-82
2023/03/14 10:51:17;;;;;;;4.80;0.85;;;10.50;99.90;;;;;;4992123;28;20029;-82
2023/03/14 10:53:44;;;;;;;2.38;0.63;;;10.50;99.90;;;;;;4973889;28;20081;-82
2023/03/14 10:56:21;;;;;;;3.80;0.50;;;10.60;99.90;;;;;;4976115;28;20030;-83
2023/03/14 10:58:52;;;;;;;3.72;0.80;;;10.50;99.90;;;;;;4991479;28;20021;-82
2023/03/14 11:01:52;;;;;;;2.33;0.52;;;10.30;99.90;;;;;;4989955;28;20418;-81
2023/03/14 11:04:23;;;;;;;2.38;0.73;;;10.00;99.90;;;;;;4991138;28;20026;-79
2023/03/14 11:06:54;;;;;;;2.35;0.60;;;9.80;99.90;;;;;;4973097;28;20059;-82
2023/03/14 11:09:29;;;;;;;4.65;0.90;;;9.70;99.90;;;;;;4971734;28;20208;-83
2023/03/14 11:12:02;;;;;;;8.77;0.77;;;9.70;99.90;;;;;;4971066;28;20026;-84
2023/03/14 11:14:40;;;;;;;5.75;0.60;;;9.60;99.90;;;;;;4977592;28;20117;-83
2023/03/14 11:17:09;;;;;;;3.28;0.50;;;9.60;99.90;;;;;;4982045;28;20072;-82
2023/03/14 11:19:40;;;;;;;5.90;0.68;;;9.60;99.90;;;;;;4974961;28;20068;-82
2023/03/14 11:22:12;;;;;;;9.63;0.70;;;9.70;99.90;;;;;;4995741;28;20029;-83
2023/03/14 11:25:06;;;;;;;10.50;1.08;;;9.80;99.90;;;;;;4999069;28;20042;-84
2023/03/14 11:27:44;;;;;;;6.22;1.17;;;9.70;99.90;;;;;;4996716;28;20037;-83
2023/03/14 11:30:21;;;;;;;5.47;1.50;;;9.60;99.90;;;;;;4978143;28;20105;-82
2023/03/14 11:33:12;;;;;;;10.00;1.13;;;9.70;99.90;;;;;;4993531;28;20083;-83
2023/03/14 11:36:10;;;;;;;4.50;1.10;;;10.10;99.90;;;;;;4976970;28;20230;-77
2023/03/14 11:38:58;;;;;;;6.20;0.90;;;10.40;99.90;;;;;;4990089;28;20470;-78
2023/03/14 11:41:40;;;;;;;6.50;0.90;;;10.50;99.90;;;;;;5006198;28;20026;-83
2023/03/14 11:44:37;;;;;;;5.07;0.95;;;10.30;99.90;;;;;;4986810;28;20121;-83
2023/03/14 11:47:15;;;;;;;10.27;0.98;;;10.20;99.90;;;;;;4987007;28;20084;-81
2023/03/14 11:49:48;;;;;;;5.40;1.02;;;10.00;99.90;;;;;;4993079;28;20037;-83
2023/03/14 11:52:32;;;;;;;13.65;1.77;;;9.80;99.90;;;;;;4975008;28;20026;-83
2023/03/14 11:55:07;;;;;;;9.43;1.92;;;9.70;99.90;;;;;;4970633;28;20042;-81
2023/03/14 11:57:34;;;;;;;9.48;1.98;;;9.50;99.90;;;;;;4972454;28;20251;-82
2023/03/14 12:00:12;;;;;;;7.57;1.40;;;9.60;99.90;;;;;;4969687;28;20517;-82
2023/03/14 12:02:57;;;;;;;11.85;1.95;;;9.60;99.90;;;;;;4992967;28;20512;-83
2023/03/14 12:05:37;;;;;;;10.15;1.70;;;9.60;99.90;;;;;;4991233;28;20057;-80
2023/03/14 12:08:08;;;;;;;16.02;2.13;;;9.60;99.90;;;;;;4981867;28;20050;-83
2023/03/14 12:10:42;;;;;;;14.82;1.83;;;9.70;99.90;;;;;;4970121;28;20023;-83
2023/03/14 12:13:14;;;;;;;13.55;2.13;;;9.80;99.90;;;;;;4976659;28;20022;-83
2023/03/14 12:15:47;;;;;;;14.90;2.20;;;10.00;99.90;;;;;;4990922;28;20475;-83
2023/03/14 12:18:32;;;;;;;17.05;2.17;;;10.10;99.90;;;;;;4992649;28;20038;-83
2023/03/14 12:21:04;;;;;;;31.77;2.47;;;10.10;99.90;;;;;;4993294;28;20058;-82
2023/03/14 12:23:42;;;;;;;12.00;1.77;;;10.30;99.90;;;;;;4994627;28;20037;-82
2023/03/14 12:26:10;;;;;;;19.27;2.60;;;10.40;99.90;;;;;;4986651;28;20466;-82
2023/03/14 12:28:37;;;;;;;14.23;2.75;;;10.10;99.90;;;;;;4970590;28;20033;-81
2023/03/14 12:31:31;;;;;;;16.63;2.25;;;10.00;99.90;;;;;;4986094;28;20033;-82
2023/03/14 12:34:19;;;;;;;14.05;2.28;;;9.60;99.90;;;;;;4971249;28;20506;-82
2023/03/14 12:36:48;;;;;;;16.45;2.35;;;9.40;99.90;;;;;;4982672;28;20506;-83
2023/03/14 12:39:33;;;;;;;19.38;3.03;;;9.30;99.90;;;;;;4998740;28;20022;-83
2023/03/14 12:42:37;;;;;;;12.43;1.90;;;9.40;99.90;;;;;;4978648;28;20027;-84
2023/03/14 12:45:35;;;;;;;16.33;1.83;;;9.70;99.90;;;;;;5002349;28;20038;-84
2023/03/14 12:48:17;;;;;;;21.00;2.65;;;10.00;99.90;;;;;;4983652;28;20042;-84
2023/03/14 12:50:53;;;;;;;19.17;2.67;;;10.40;99.90;;;;;;4977553;28;20033;-84
2023/03/14 12:53:27;;;;;;;21.95;2.35;;;10.40;99.90;;;;;;4996805;28;20073;-84
2023/03/14 12:55:58;;;;;;;20.95;2.78;;;10.20;99.90;;;;;;4996740;28;20445;-83
2023/03/14 12:58:43;;;;;;;19.17;2.45;;;10.00;99.90;;;;;;4976752;28;20393;-83